Terminal Aerodrome Forecast
Issued by NWS

Home | Current Version | Previous Version | Text Only | Print | Product List | Glossary On
Versions: 1 2 3 4 5 6 7 8 9 10 11 12 13 14 15 16
000
FTUS45 KCYS 170900 AAA
TAFLAR
TAF AMD
KLAR 170916Z 1709/1806 16013KT P6SM FEW020 BKN120
      TEMPO 1711/1713 2SM BR OVC025
     FM171300 27008KT P6SM BKN040
     FM171800 24013G24KT P6SM SCT080
     FM180200 19010KT P6SM FEW080=

USA.gov is the U.S. government's official web portal to all federal, state and local government web resources and services.